Time;durP1;ratioP1;P1;durP2;ratioP2;P2;SDS_P1;SDS_P2;PMS_P1;PMS_P2;Temp;Humidity;BMP_temperature;BMP_pressure;BME280_temperature;BME280_humidity;BME280_pressure;Samples;Min_cycle;Max_cycle;Signal;HPM_P1;HPM_P2
2024/03/30 00:01:17;;;;;;;18.10;13.90;;;;;;;4.02;100.00;100505.80;111016;1237;75186;-64
2024/03/30 00:03:45;;;;;;;17.10;12.90;;;;;;;4.02;100.00;100511.35;110977;1234;72762;-65
2024/03/30 00:06:15;;;;;;;17.50;13.30;;;;;;;4.04;100.00;100511.50;111039;1233;72667;-65
2024/03/30 00:08:44;;;;;;;20.60;14.50;;;;;;;4.05;100.00;100502.50;111060;1234;61875;-64
2024/03/30 00:11:16;;;;;;;17.60;13.70;;;;;;;4.06;100.00;100508.20;111039;1232;62006;-65
2024/03/30 00:13:50;;;;;;;15.90;12.60;;;;;;;4.07;100.00;100516.52;111046;1233;73885;-65
2024/03/30 00:16:27;;;;;;;17.30;13.20;;;;;;;4.07;100.00;100511.98;111031;1234;71923;-64
2024/03/30 00:19:02;;;;;;;16.20;12.30;;;;;;;4.06;100.00;100509.54;111042;1233;72219;-64
2024/03/30 00:21:33;;;;;;;15.20;12.50;;;;;;;4.04;100.00;100506.45;111000;1233;62023;-65
2024/03/30 00:24:03;;;;;;;18.80;12.80;;;;;;;4.01;100.00;100506.19;110854;1234;61915;-64
2024/03/30 00:26:31;;;;;;;17.80;13.00;;;;;;;4.00;100.00;100506.05;111097;1234;75537;-64
2024/03/30 00:29:01;;;;;;;15.00;12.10;;;;;;;3.98;100.00;100508.33;111036;1233;73578;-63
2024/03/30 00:31:41;;;;;;;14.60;11.80;;;;;;;3.96;100.00;100511.55;110977;1233;72743;-64
2024/03/30 00:34:12;;;;;;;15.30;12.20;;;;;;;3.94;100.00;100524.38;111029;1234;62376;-64
2024/03/30 00:36:46;;;;;;;14.30;11.50;;;;;;;3.92;100.00;100533.55;111028;1234;62125;-64
2024/03/30 00:39:18;;;;;;;15.90;12.30;;;;;;;3.89;100.00;100533.23;110842;1233;75288;-65
2024/03/30 00:41:56;;;;;;;13.80;11.10;;;;;;;3.86;100.00;100533.77;111066;1233;71016;-65
2024/03/30 00:44:28;;;;;;;13.70;11.20;;;;;;;3.85;100.00;100537.33;111043;1233;72882;-65
2024/03/30 00:47:03;;;;;;;14.70;11.40;;;;;;;3.83;100.00;100536.52;110853;1238;62036;-65
2024/03/30 00:49:42;;;;;;;13.10;10.50;;;;;;;3.82;100.00;100535.42;111006;1234;61929;-65
2024/03/30 00:52:12;;;;;;;11.70;10.10;;;;;;;3.81;100.00;100539.29;111065;1234;75188;-65
2024/03/30 00:54:39;;;;;;;12.00;9.60;;;;;;;3.78;100.00;100541.59;110991;1234;74158;-65
2024/03/30 00:57:09;;;;;;;13.10;10.60;;;;;;;3.76;100.00;100536.64;111059;1233;71199;-65
2024/03/30 00:59:43;;;;;;;12.30;10.70;;;;;;;3.73;100.00;100534.70;110837;1234;61950;-65
2024/03/30 01:02:30;;;;;;;11.70;9.90;;;;;;;3.72;100.00;100530.33;111060;1234;62055;-65
2024/03/30 01:05:05;;;;;;;11.60;9.80;;;;;;;3.69;100.00;100530.18;111030;1237;75306;-65
2024/03/30 01:07:48;;;;;;;13.50;9.20;;;;;;;3.63;100.00;100532.04;111045;1233;72715;-66
2024/03/30 01:10:28;;;;;;;11.60;9.10;;;;;;;3.56;100.00;100539.23;110881;1234;73363;-66
2024/03/30 01:13:01;;;;;;;12.20;9.30;;;;;;;3.52;100.00;100542.38;111003;1233;62363;-64
2024/03/30 01:15:37;;;;;;;11.20;9.50;;;;;;;3.50;100.00;100546.08;111048;1233;61991;-65
2024/03/30 01:18:16;;;;;;;10.70;9.20;;;;;;;3.48;100.00;100548.16;111111;1235;75168;-66
2024/03/30 01:20:55;;;;;;;10.70;9.00;;;;;;;3.46;100.00;100552.11;108275;1234;10197820;-65
2024/03/30 01:23:31;;;;;;;10.00;8.80;;;;;;;3.45;100.00;100553.91;111024;1234;72936;-65
2024/03/30 01:26:03;;;;;;;10.70;9.60;;;;;;;3.43;100.00;100552.09;111044;1233;62035;-66
2024/03/30 01:28:36;;;;;;;12.10;10.60;;;;;;;3.43;100.00;100550.18;111051;1233;62010;-65
2024/03/30 01:31:20;;;;;;;13.90;10.70;;;;;;;3.43;100.00;100546.61;111063;1233;73878;-66
2024/03/30 01:34:12;;;;;;;11.10;9.50;;;;;;;3.44;100.00;100543.84;111055;1234;72520;-65
2024/03/30 01:36:55;;;;;;;10.90;9.50;;;;;;;3.46;100.00;100545.33;111075;1233;72215;-65
2024/03/30 01:39:29;;;;;;;11.00;9.80;;;;;;;3.47;100.00;100545.16;111034;1235;61917;-65
2024/03/30 01:42:04;;;;;;;10.90;9.70;;;;;;;3.48;100.00;100550.48;111001;1233;61968;-68
2024/03/30 01:44:31;;;;;;;11.70;9.90;;;;;;;3.48;100.00;100550.15;111021;1234;75240;-66
2024/03/30 01:46:58;;;;;;;11.60;9.80;;;;;;;3.47;100.00;100549.27;111041;1234;72607;-66
2024/03/30 01:49:25;;;;;;;11.70;10.50;;;;;;;3.42;100.00;100553.23;110986;1233;73307;-66
2024/03/30 01:51:52;;;;;;;10.70;9.40;;;;;;;3.39;100.00;100557.70;111059;1233;61886;-65
2024/03/30 01:54:19;;;;;;;13.30;11.10;;;;;;;3.38;100.00;100559.78;110942;1234;61909;-66
2024/03/30 01:56:47;;;;;;;12.60;9.90;;;;;;;3.37;100.00;100562.39;111047;1234;76421;-65
2024/03/30 01:59:15;;;;;;;12.10;10.60;;;;;;;3.37;100.00;100559.84;111042;1236;72902;-65
2024/03/30 02:01:46;;;;;;;11.20;10.00;;;;;;;3.37;100.00;100562.65;111036;1235;72268;-66
2024/03/30 02:04:16;;;;;;;10.70;9.00;;;;;;;3.36;100.00;100553.79;111021;1233;62030;-64
2024/03/30 02:06:43;;;;;;;11.40;9.80;;;;;;;3.33;100.00;100556.80;111027;1234;61921;-66
2024/03/30 02:09:11;;;;;;;11.20;9.50;;;;;;;3.31;100.00;100554.98;110829;1235;75238;-64
2024/03/30 02:11:38;;;;;;;10.50;9.00;;;;;;;3.29;100.00;100556.25;110968;1237;71127;-64
2024/03/30 02:14:08;;;;;;;9.90;8.80;;;;;;;3.29;100.00;100559.41;111034;1233;71331;-64
2024/03/30 02:16:36;;;;;;;10.20;8.90;;;;;;;3.30;100.00;100560.70;111049;1232;62025;-64
2024/03/30 02:19:06;;;;;;;9.70;8.70;;;;;;;3.30;100.00;100560.02;111008;1237;61915;-64
2024/03/30 02:21:33;;;;;;;9.70;8.50;;;;;;;3.30;100.00;100562.02;110697;1233;75363;-64
2024/03/30 02:23:59;;;;;;;9.40;8.30;;;;;;;3.28;100.00;100564.81;110990;1235;72951;-64
2024/03/30 02:26:26;;;;;;;10.10;9.00;;;;;;;3.23;100.00;100562.94;110996;1236;72220;-65
2024/03/30 02:28:54;;;;;;;10.40;8.70;;;;;;;3.15;100.00;100553.78;111056;1236;62119;-65
2024/03/30 02:31:21;;;;;;;10.00;8.60;;;;;;;3.11;100.00;100563.91;111018;1233;61915;-66
2024/03/30 02:33:47;;;;;;;12.30;9.10;;;;;;;3.09;100.00;100561.19;110998;1233;75964;-64
2024/03/30 02:36:14;;;;;;;10.60;9.00;;;;;;;3.07;100.00;100556.90;111089;1236;71408;-64
2024/03/30 02:38:41;;;;;;;10.00;8.40;;;;;;;3.05;100.00;100553.55;110703;1233;72601;-65
2024/03/30 02:41:08;;;;;;;11.50;8.90;;;;;;;3.05;100.00;100556.73;111069;1233;61277;-65
2024/03/30 02:43:35;;;;;;;10.40;9.30;;;;;;;3.05;100.00;100556.84;111035;1234;61042;-65
2024/03/30 02:46:02;;;;;;;10.60;9.50;;;;;;;3.07;100.00;100555.91;111088;1234;73907;-65
2024/03/30 02:48:29;;;;;;;11.70;9.70;;;;;;;3.10;100.00;100556.99;111033;1235;71278;-65
2024/03/30 02:50:56;;;;;;;10.30;9.20;;;;;;;3.11;100.00;100566.09;111074;1233;72619;-65
2024/03/30 02:53:23;;;;;;;10.00;9.00;;;;;;;3.12;100.00;100563.17;111091;1233;62010;-65
2024/03/30 02:55:50;;;;;;;10.90;9.10;;;;;;;3.13;100.00;100564.34;111073;1234;61928;-65
2024/03/30 02:58:17;;;;;;;11.90;9.40;;;;;;;3.13;100.00;100568.38;111071;1236;75880;-65
2024/03/30 03:00:44;;;;;;;11.00;9.40;;;;;;;3.13;100.00;100569.63;111061;1237;73505;-65
2024/03/30 03:03:11;;;;;;;11.40;9.30;;;;;;;3.12;100.00;100572.88;111015;1234;72417;-65
2024/03/30 03:05:38;;;;;;;10.60;9.40;;;;;;;3.11;100.00;100571.25;111083;1234;61941;-65
2024/03/30 03:08:05;;;;;;;11.30;8.80;;;;;;;3.11;100.00;100572.30;111058;1232;61939;-65
2024/03/30 03:10:32;;;;;;;11.90;8.80;;;;;;;3.11;100.00;100579.69;111043;1234;75763;-66
2024/03/30 03:12:59;;;;;;;10.50;8.50;;;;;;;3.12;100.00;100585.20;111016;1234;73329;-65
2024/03/30 03:15:26;;;;;;;11.70;8.70;;;;;;;3.13;100.00;100588.18;111025;1233;72512;-66
2024/03/30 03:17:52;;;;;;;9.50;8.50;;;;;;;3.14;100.00;100591.99;111009;1233;60955;-65
2024/03/30 03:20:19;;;;;;;10.10;8.40;;;;;;;3.15;100.00;100590.36;111035;1234;62049;-65
2024/03/30 03:22:47;;;;;;;9.60;8.00;;;;;;;3.16;100.00;100590.39;110820;1235;75717;-65
2024/03/30 03:25:13;;;;;;;9.90;8.40;;;;;;;3.17;100.00;100586.78;111071;1234;71243;-64
2024/03/30 03:27:40;;;;;;;10.80;8.70;;;;;;;3.18;100.00;100589.33;111062;1236;73334;-65
2024/03/30 03:30:08;;;;;;;10.20;8.20;;;;;;;3.18;100.00;100586.04;111029;1233;62001;-65
2024/03/30 03:32:35;;;;;;;9.20;8.20;;;;;;;3.19;100.00;100585.31;111068;1232;61910;-64
2024/03/30 03:35:02;;;;;;;9.00;8.10;;;;;;;3.19;100.00;100582.83;111030;1234;73716;-65
2024/03/30 03:37:29;;;;;;;9.40;8.10;;;;;;;3.19;100.00;100582.27;111097;1234;73294;-64
2024/03/30 03:39:55;;;;;;;9.10;8.10;;;;;;;3.20;100.00;100590.59;111080;1236;73016;-65
2024/03/30 03:42:23;;;;;;;10.90;9.70;;;;;;;3.23;100.00;100591.55;111069;1233;61910;-64
2024/03/30 03:44:49;;;;;;;10.80;8.90;;;;;;;3.27;100.00;100586.50;111035;1233;61897;-65
2024/03/30 03:47:16;;;;;;;10.20;9.10;;;;;;;3.29;100.00;100582.27;111058;1233;76223;-64
2024/03/30 03:49:43;;;;;;;11.10;9.10;;;;;;;3.32;100.00;100585.35;111084;1233;73066;-64
2024/03/30 03:52:10;;;;;;;9.80;8.80;;;;;;;3.33;100.00;100590.43;111039;1234;72471;-65
2024/03/30 03:54:37;;;;;;;11.20;9.50;;;;;;;3.34;100.00;100591.33;111001;1234;61939;-65
2024/03/30 03:57:04;;;;;;;10.60;9.10;;;;;;;3.36;100.00;100585.38;111096;1232;62022;-63
2024/03/30 03:59:31;;;;;;;10.10;8.40;;;;;;;3.40;100.00;100584.20;111061;1234;75919;-66
2024/03/30 04:01:57;;;;;;;9.50;8.50;;;;;;;3.38;100.00;100588.88;111078;1233;74152;-65
2024/03/30 04:04:25;;;;;;;11.10;9.20;;;;;;;3.42;100.00;100590.40;111031;1236;73330;-65
2024/03/30 04:06:51;;;;;;;9.80;8.60;;;;;;;3.51;100.00;100586.70;111070;1237;61953;-65
2024/03/30 04:09:18;;;;;;;10.10;8.60;;;;;;;3.57;100.00;100583.11;111072;1234;62662;-65
2024/03/30 04:11:45;;;;;;;12.30;9.40;;;;;;;3.60;100.00;100583.86;110963;1234;75664;-66
2024/03/30 04:14:12;;;;;;;11.20;8.70;;;;;;;3.62;100.00;100587.35;111034;1234;73190;-65
2024/03/30 04:16:39;;;;;;;11.50;10.20;;;;;;;3.66;100.00;100590.39;111055;1233;72538;-65
2024/03/30 04:19:06;;;;;;;12.70;10.10;;;;;;;3.70;100.00;100588.45;111054;1232;60829;-64
2024/03/30 04:21:33;;;;;;;12.00;10.70;;;;;;;3.80;100.00;100592.11;111116;1234;61873;-65
2024/03/30 04:24:01;;;;;;;11.50;10.30;;;;;;;3.90;100.00;100595.90;111077;1234;75227;-65
2024/03/30 04:26:28;;;;;;;12.80;10.60;;;;;;;4.04;100.00;100592.50;111030;1234;73513;-64
2024/03/30 04:28:54;;;;;;;13.60;11.40;;;;;;;4.16;100.00;100595.23;111015;1232;71191;-64
2024/03/30 04:31:21;;;;;;;13.20;11.40;;;;;;;4.28;100.00;100596.36;111066;1234;61873;-65
2024/03/30 04:33:48;;;;;;;14.80;11.80;;;;;;;4.40;100.00;100595.30;111028;1234;61909;-67
2024/03/30 04:36:15;;;;;;;13.40;11.80;;;;;;;4.54;100.00;100597.52;111080;1234;74080;-65
2024/03/30 04:38:42;;;;;;;12.70;11.10;;;;;;;4.65;100.00;100598.67;111054;1234;72579;-65
2024/03/30 04:41:10;;;;;;;14.20;12.40;;;;;;;4.76;100.00;100603.03;111065;1236;73150;-66
2024/03/30 04:43:37;;;;;;;14.40;12.90;;;;;;;4.85;100.00;100606.93;111021;1233;61085;-66
2024/03/30 04:46:04;;;;;;;14.60;12.90;;;;;;;4.97;100.00;100603.52;111072;1233;61908;-65
2024/03/30 04:48:31;;;;;;;16.20;13.80;;;;;;;5.07;100.00;100607.90;111042;1234;74578;-66
2024/03/30 04:51:07;;;;;;;15.60;13.80;;;;;;;5.16;100.00;100613.67;111013;1234;73132;-66
2024/03/30 04:53:35;;;;;;;14.60;13.10;;;;;;;5.26;100.00;100614.80;110999;1233;71601;-65
2024/03/30 04:56:03;;;;;;;16.30;14.30;;;;;;;5.37;100.00;100619.73;111067;1233;61983;-65
2024/03/30 04:58:31;;;;;;;17.20;14.90;;;;;;;5.49;100.00;100625.55;111039;1233;61863;-65
2024/03/30 05:01:02;;;;;;;17.50;15.60;;;;;;;5.61;100.00;100631.19;111053;1236;75166;-65
2024/03/30 05:03:29;;;;;;;17.90;16.00;;;;;;;5.76;100.00;100627.50;111118;1235;72651;-65
2024/03/30 05:05:56;;;;;;;18.30;16.00;;;;;;;5.88;100.00;100629.22;111073;1232;73128;-65
2024/03/30 05:08:23;;;;;;;19.90;17.50;;;;;;;6.00;100.00;100631.26;111017;1233;61197;-66
2024/03/30 05:10:52;;;;;;;20.10;17.10;;;;;;;6.13;100.00;100633.90;111069;1233;61907;-66
2024/03/30 05:13:19;;;;;;;20.90;18.60;;;;;;;6.27;100.00;100641.20;111117;1233;73330;-67
2024/03/30 05:15:46;;;;;;;21.00;18.50;;;;;;;6.43;100.00;100642.77;111098;1234;71078;-68
2024/03/30 05:18:14;;;;;;;22.00;18.20;;;;;;;6.60;100.00;100643.50;111047;1233;72024;-66
2024/03/30 05:20:50;;;;;;;22.80;19.70;;;;;;;6.77;100.00;100643.74;111073;1234;60701;-65
2024/03/30 05:23:22;;;;;;;27.20;20.50;;;;;;;6.98;100.00;100651.09;111041;1234;61995;-65
2024/03/30 05:25:49;;;;;;;22.90;20.40;;;;;;;7.16;100.00;100650.70;111021;1234;75358;-66
2024/03/30 05:28:20;;;;;;;22.40;20.00;;;;;;;7.34;100.00;100654.70;111088;1233;72509;-66
2024/03/30 05:30:47;;;;;;;23.30;20.60;;;;;;;7.49;100.00;100656.31;111027;1236;71223;-65
2024/03/30 05:33:14;;;;;;;23.50;20.60;;;;;;;7.65;100.00;100655.04;111000;1233;62365;-66
2024/03/30 05:35:41;;;;;;;22.50;20.10;;;;;;;7.78;100.00;100656.58;111040;1233;61897;-65
2024/03/30 05:38:08;;;;;;;22.70;20.30;;;;;;;7.91;100.00;100654.11;111029;1236;73402;-66
2024/03/30 05:40:35;;;;;;;21.00;18.80;;;;;;;8.01;100.00;100649.10;111061;1235;73331;-65
2024/03/30 05:43:02;;;;;;;21.10;18.30;;;;;;;8.11;100.00;100648.31;110992;1234;71541;-66
2024/03/30 05:45:30;;;;;;;21.10;18.50;;;;;;;8.20;100.00;100650.56;111053;1232;61776;-67
2024/03/30 05:47:57;;;;;;;20.00;17.90;;;;;;;8.33;100.00;100651.11;111114;1235;61085;-66
2024/03/30 05:50:25;;;;;;;22.10;19.10;;;;;;;8.49;100.00;100651.14;111090;1234;75501;-67
2024/03/30 05:52:52;;;;;;;20.70;18.50;;;;;;;8.65;100.00;100649.13;111061;1234;72677;-67
2024/03/30 05:55:19;;;;;;;22.80;20.10;;;;;;;8.81;100.00;100652.89;111029;1237;72806;-66
2024/03/30 05:57:46;;;;;;;22.50;19.60;;;;;;;8.98;100.00;100650.52;111074;1233;62051;-66
2024/03/30 06:00:14;;;;;;;20.80;18.60;;;;;;;9.16;100.00;100650.75;111028;1232;60019;-67
2024/03/30 06:02:44;;;;;;;19.60;17.60;;;;;;;9.36;100.00;100656.03;111094;1235;75448;-65
2024/03/30 06:05:12;;;;;;;20.50;18.30;;;;;;;9.54;100.00;100652.16;111077;1235;72851;-67
2024/03/30 06:07:41;;;;;;;19.00;16.90;;;;;;;9.70;100.00;100652.04;111046;1234;72873;-69
2024/03/30 06:10:09;;;;;;;19.70;17.30;;;;;;;9.82;100.00;100653.20;111036;1233;62048;-67
2024/03/30 06:12:37;;;;;;;18.40;16.50;;;;;;;9.98;100.00;100660.05;111066;1234;61898;-66
2024/03/30 06:15:05;;;;;;;17.60;15.80;;;;;;;10.17;100.00;100667.61;111054;1237;75652;-66
2024/03/30 06:17:40;;;;;;;17.50;15.60;;;;;;;10.33;100.00;100667.54;110891;1234;72716;-67
2024/03/30 06:20:15;;;;;;;;;;;;;;;10.52;100.00;100668.89;111045;1234;73411;-65
2024/03/30 06:22:43;;;;;;;17.80;16.00;;;;;;;10.69;100.00;100665.28;111082;1233;62042;-66
2024/03/30 06:25:17;;;;;;;;;;;;;;;10.88;100.00;100658.11;110901;1235;60772;-67
2024/03/30 06:27:46;;;;;;;15.40;13.80;;;;;;;11.02;100.00;100658.59;111019;1234;75438;-65
2024/03/30 06:30:17;;;;;;;13.90;12.40;;;;;;;11.13;100.00;100659.10;110879;1234;72847;-66
2024/03/30 06:32:57;;;;;;;13.40;11.70;;;;;;;11.21;100.00;100657.33;111040;1237;72659;-66
2024/03/30 06:35:30;;;;;;;12.10;10.40;;;;;;;11.30;100.00;100658.55;111007;1234;62016;-67
2024/03/30 06:37:59;;;;;;;11.40;10.20;;;;;;;11.40;100.00;100662.23;111042;1234;61984;-66
2024/03/30 06:43:48;;;;;;;11.20;10.00;;;;;;;11.65;100.00;100665.04;111050;1235;71993;-66
2024/03/30 06:46:39;;;;;;;10.50;9.40;;;;;;;11.79;100.00;100659.20;110834;1239;70943;-67
2024/03/30 06:49:26;;;;;;;9.80;8.80;;;;;;;11.96;100.00;100654.58;111044;1237;62596;-65
2024/03/30 06:52:07;;;;;;;10.00;8.60;;;;;;;12.11;100.00;100652.36;111061;1235;62109;-66
2024/03/30 06:54:48;;;;;;;8.50;7.60;;;;;;;12.24;100.00;100648.59;110986;1234;75319;-66
2024/03/30 06:57:22;;;;;;;9.00;7.20;;;;;;;12.35;100.00;100649.51;111089;1235;73065;-68
2024/03/30 07:00:04;;;;;;;8.10;6.70;;;;;;;12.49;100.00;100647.98;111023;1236;70954;-66
2024/03/30 07:02:40;;;;;;;8.40;6.40;;;;;;;12.61;100.00;100641.54;111019;1234;62671;-66
2024/03/30 07:05:11;;;;;;;6.70;5.70;;;;;;;12.75;100.00;100639.56;110966;1234;62010;-66
2024/03/30 07:07:58;;;;;;;8.80;6.80;;;;;;;12.86;100.00;100629.45;110996;1233;75280;-65
2024/03/30 07:10:49;;;;;;;10.90;6.90;;;;;;;12.96;100.00;100626.83;111039;1235;73254;-66
2024/03/30 07:13:20;;;;;;;8.90;6.30;;;;;;;13.08;100.00;100618.48;111060;1234;72473;-66
2024/03/30 07:15:50;;;;;;;7.90;5.40;;;;;;;13.21;100.00;100613.32;110990;1235;61063;-66
2024/03/30 07:18:19;;;;;;;6.20;4.20;;;;;;;13.37;100.00;100614.20;111044;1234;59516;-65
2024/03/30 07:20:46;;;;;;;6.10;4.20;;;;;;;13.52;100.00;100608.45;111023;1235;75814;-66
2024/03/30 07:23:13;;;;;;;5.00;3.60;;;;;;;13.66;100.00;100602.64;111041;1235;72433;-67
2024/03/30 07:25:39;;;;;;;7.00;3.80;;;;;;;13.81;100.00;100601.12;111041;1235;72380;-66
2024/03/30 07:28:06;;;;;;;4.20;3.20;;;;;;;13.94;100.00;100596.86;110991;1234;61985;-67
2024/03/30 07:30:37;;;;;;;5.30;3.60;;;;;;;14.07;100.00;100588.61;111048;1233;62023;-65
2024/03/30 07:33:05;;;;;;;4.80;3.60;;;;;;;14.18;100.00;100581.64;111040;1237;75548;-67
2024/03/30 07:35:33;;;;;;;5.70;3.00;;;;;;;14.29;100.00;100578.13;111033;1235;72140;-66
2024/03/30 07:38:00;;;;;;;3.40;2.70;;;;;;;14.37;100.00;100575.38;111058;1237;72950;-67
2024/03/30 07:40:27;;;;;;;4.10;2.40;;;;;;;14.43;100.00;100569.41;111005;1235;61891;-68
2024/03/30 07:42:54;;;;;;;4.60;2.70;;;;;;;14.50;100.00;100569.73;111053;1235;62033;-65
2024/03/30 07:45:21;;;;;;;4.50;2.30;;;;;;;14.58;100.00;100569.58;111031;1234;75305;-65
2024/03/30 07:47:48;;;;;;;4.10;2.50;;;;;;;14.65;100.00;100565.31;111012;1237;72176;-65
2024/03/30 07:50:16;;;;;;;3.40;2.30;;;;;;;14.72;100.00;100565.14;111022;1234;73046;-66
2024/03/30 07:52:45;;;;;;;3.30;2.30;;;;;;;14.77;100.00;100556.39;111045;1236;61918;-65
2024/03/30 07:55:12;;;;;;;4.30;2.50;;;;;;;14.83;100.00;100550.28;111042;1235;59439;-67
2024/03/30 07:57:40;;;;;;;3.90;2.10;;;;;;;14.88;100.00;100548.83;111098;1235;74713;-66
2024/03/30 08:00:07;;;;;;;3.60;1.90;;;;;;;14.93;100.00;100550.08;111038;1236;73303;-65
2024/03/30 08:02:34;;;;;;;4.00;2.30;;;;;;;15.00;100.00;100553.23;110961;1235;72261;-65
2024/03/30 08:05:01;;;;;;;4.50;2.00;;;;;;;15.06;100.00;100551.93;111014;1235;61837;-65
2024/03/30 08:07:32;;;;;;;3.40;2.20;;;;;;;15.14;100.00;100555.98;111042;1235;61897;-64
2024/03/30 08:09:59;;;;;;;4.10;2.20;;;;;;;15.24;100.00;100554.88;111065;1235;75277;-65
2024/03/30 08:12:26;;;;;;;4.60;2.30;;;;;;;15.36;100.00;100551.77;111038;1237;72798;-65
2024/03/30 08:14:53;;;;;;;4.50;2.20;;;;;;;15.44;100.00;100548.33;110997;1234;71304;-65
2024/03/30 08:17:20;;;;;;;4.00;2.10;;;;;;;15.49;100.00;100541.75;111040;1236;61884;-65
2024/03/30 08:19:47;;;;;;;3.70;2.00;;;;;;;15.57;98.53;100536.91;111000;1232;61997;-66
2024/03/30 08:22:13;;;;;;;3.10;1.80;;;;;;;15.65;89.17;100534.59;111024;1235;75284;-66
2024/03/30 08:24:40;;;;;;;2.10;1.50;;;;;;;15.77;86.77;100528.20;111020;1235;73128;-65
2024/03/30 08:27:07;;;;;;;2.50;1.40;;;;;;;15.89;87.27;100524.41;111034;1235;72381;-65
2024/03/30 08:29:34;;;;;;;3.60;1.70;;;;;;;16.02;84.29;100522.11;110985;1234;62026;-66
2024/03/30 08:32:01;;;;;;;2.40;1.50;;;;;;;16.15;81.49;100523.84;111008;1235;61981;-66
2024/03/30 08:34:28;;;;;;;2.00;1.40;;;;;;;16.32;80.94;100521.55;110967;1235;75802;-63
2024/03/30 08:36:56;;;;;;;3.50;1.50;;;;;;;16.47;79.10;100515.20;110994;1235;73112;-65
2024/03/30 08:39:23;;;;;;;3.10;1.50;;;;;;;16.59;74.80;100512.92;110998;1235;72269;-64
2024/03/30 08:41:50;;;;;;;3.90;1.60;;;;;;;16.72;74.43;100513.17;111004;1235;61218;-65
2024/03/30 08:44:17;;;;;;;2.70;1.30;;;;;;;16.87;72.10;100506.88;110972;1234;61933;-66
2024/03/30 08:46:45;;;;;;;2.20;1.20;;;;;;;17.01;70.93;100507.34;111025;1234;75153;-65
2024/03/30 08:49:12;;;;;;;2.30;1.00;;;;;;;17.16;68.71;100504.67;110986;1235;72858;-66
2024/03/30 08:51:39;;;;;;;8.40;1.20;;;;;;;17.30;67.20;100505.23;110975;1235;73148;-65
2024/03/30 08:54:06;;;;;;;1.80;1.00;;;;;;;17.44;62.02;100497.90;110970;1235;61970;-65
2024/03/30 08:56:35;;;;;;;2.10;1.10;;;;;;;17.61;59.83;100495.81;110995;1233;62134;-66
2024/03/30 08:59:02;;;;;;;1.40;0.80;;;;;;;17.74;57.45;100495.73;111023;1235;75175;-65
2024/03/30 09:01:29;;;;;;;2.40;1.10;;;;;;;17.84;56.71;100494.84;110947;1235;73137;-66
2024/03/30 09:03:56;;;;;;;2.60;1.00;;;;;;;17.95;55.73;100497.88;111026;1235;72598;-67
2024/03/30 09:06:23;;;;;;;2.40;1.20;;;;;;;18.10;55.19;100495.20;111023;1235;61979;-65
2024/03/30 09:08:51;;;;;;;2.40;1.10;;;;;;;18.21;50.65;100494.77;110984;1235;61998;-66
2024/03/30 09:11:18;;;;;;;2.40;1.10;;;;;;;18.29;48.28;100492.70;111008;1236;75512;-66
2024/03/30 09:13:45;;;;;;;2.30;1.30;;;;;;;18.36;48.94;100491.45;111021;1235;71210;-66
2024/03/30 09:16:14;;;;;;;2.60;1.20;;;;;;;18.46;49.63;100488.31;110986;1235;73599;-66
2024/03/30 09:18:41;;;;;;;2.70;1.00;;;;;;;18.57;49.30;100482.02;110993;1236;62080;-66
2024/03/30 09:21:09;;;;;;;2.10;1.00;;;;;;;18.64;48.94;100478.36;111012;1236;60600;-65
2024/03/30 09:23:36;;;;;;;2.60;1.10;;;;;;;18.74;49.12;100471.80;111024;1237;75419;-65
2024/03/30 09:26:03;;;;;;;2.20;1.10;;;;;;;18.84;48.79;100468.96;111025;1235;73773;-66
2024/03/30 09:28:30;;;;;;;2.10;1.10;;;;;;;18.95;48.14;100469.72;111005;1236;72717;-65
2024/03/30 09:30:57;;;;;;;1.90;1.10;;;;;;;19.07;48.49;100468.25;111000;1234;63181;-66
2024/03/30 09:33:24;;;;;;;2.80;1.30;;;;;;;19.21;48.97;100465.49;110909;1234;62130;-66
2024/03/30 09:35:52;;;;;;;3.00;1.30;;;;;;;19.36;48.51;100463.48;111016;1234;75899;-66
2024/03/30 09:38:19;;;;;;;2.50;1.00;;;;;;;19.51;47.41;100463.28;111062;1236;73915;-66
2024/03/30 09:40:48;;;;;;;2.10;1.10;;;;;;;19.67;47.45;100461.64;111002;1235;72652;-65
2024/03/30 09:43:15;;;;;;;3.40;1.20;;;;;;;19.82;46.13;100465.30;110817;1235;63031;-65
2024/03/30 09:45:42;;;;;;;1.80;1.00;;;;;;;19.91;45.14;100468.20;110894;1235;61873;-66
2024/03/30 09:48:10;;;;;;;1.80;1.00;;;;;;;19.98;45.54;100458.23;111053;1236;75278;-65
2024/03/30 09:50:37;;;;;;;3.20;1.30;;;;;;;20.07;45.80;100458.68;111015;1236;72877;-69
2024/03/30 09:53:06;;;;;;;2.70;1.20;;;;;;;20.16;45.65;100456.21;110722;1235;72422;-65
2024/03/30 09:55:33;;;;;;;2.20;1.10;;;;;;;20.26;44.83;100455.70;110985;1235;61811;-66
2024/03/30 09:58:00;;;;;;;3.40;1.40;;;;;;;20.28;44.66;100455.08;110720;1234;62042;-66
2024/03/30 10:00:28;;;;;;;2.50;1.20;;;;;;;20.25;44.16;100454.84;110690;1240;75134;-66
2024/03/30 10:02:58;;;;;;;2.50;1.30;;;;;;;20.27;44.66;100451.25;111032;1236;72060;-66
2024/03/30 10:05:34;;;;;;;2.30;1.10;;;;;;;20.35;44.29;100451.52;111032;1234;73638;-65
2024/03/30 10:08:24;;;;;;;2.60;1.10;;;;;;;20.43;43.27;100448.09;111004;1233;63237;-68
2024/03/30 10:10:57;;;;;;;3.40;1.00;;;;;;;20.51;43.75;100448.82;110990;1235;61179;-67
2024/03/30 10:13:32;;;;;;;3.60;1.30;;;;;;;20.65;43.92;100449.71;111007;1234;75402;-67
2024/03/30 10:16:14;;;;;;;3.60;1.20;;;;;;;20.76;43.64;100445.98;110927;1236;73666;-68
2024/03/30 10:19:03;;;;;;;2.00;1.00;;;;;;;20.83;42.54;100445.21;110942;1237;72327;-65
2024/03/30 10:21:45;;;;;;;2.90;1.00;;;;;;;20.88;42.45;100439.91;110983;1233;63023;-66
2024/03/30 10:24:14;;;;;;;1.90;0.90;;;;;;;20.96;43.06;100439.61;111039;1232;61997;-66
2024/03/30 10:26:48;;;;;;;2.20;1.10;;;;;;;21.09;42.68;100439.14;110897;1240;76262;-67
2024/03/30 10:29:23;;;;;;;2.50;1.10;;;;;;;21.26;42.68;100433.80;110982;1235;72736;-65
2024/03/30 10:32:00;;;;;;;3.20;1.20;;;;;;;21.45;42.40;100431.44;111005;1234;72054;-63
2024/03/30 10:34:32;;;;;;;2.00;1.10;;;;;;;21.58;41.70;100432.98;111003;1233;61889;-68
2024/03/30 10:37:07;;;;;;;1.90;1.10;;;;;;;21.65;41.50;100427.41;111061;1233;61742;-67
2024/03/30 10:39:54;;;;;;;2.50;1.20;;;;;;;21.64;41.28;100425.21;110996;1235;76504;-65
2024/03/30 10:42:37;;;;;;;2.40;1.10;;;;;;;21.62;41.02;100416.44;111018;1234;74066;-66
2024/03/30 10:45:19;;;;;;;2.80;1.20;;;;;;;21.52;41.22;100414.69;111025;1234;72288;-66
2024/03/30 10:48:01;;;;;;;1.80;0.90;;;;;;;21.40;40.98;100411.92;110995;1235;62014;-66
2024/03/30 10:50:44;;;;;;;2.80;1.10;;;;;;;21.25;40.55;100413.23;111020;1235;62004;-65
2024/03/30 10:53:26;;;;;;;3.10;1.20;;;;;;;21.12;40.42;100412.34;110821;1238;76313;-66
2024/03/30 10:56:23;;;;;;;1.90;1.00;;;;;;;21.05;40.56;100411.91;110870;1233;75813;-65
2024/03/30 10:59:17;;;;;;;2.70;1.20;;;;;;;21.04;40.49;100406.55;110938;1237;73343;-66
2024/03/30 11:02:02;;;;;;;3.40;1.40;;;;;;;21.01;40.26;100400.08;110928;1235;61978;-65
2024/03/30 11:04:29;;;;;;;2.40;1.00;;;;;;;21.00;41.00;100401.44;110948;1232;62020;-65
2024/03/30 11:06:56;;;;;;;2.30;1.10;;;;;;;21.01;40.52;100391.84;111039;1234;75112;-66
2024/03/30 11:09:25;;;;;;;1.70;1.00;;;;;;;20.98;40.81;100392.83;110980;1235;72831;-65
2024/03/30 11:11:53;;;;;;;3.10;1.10;;;;;;;20.97;41.14;100387.95;110849;1238;72359;-67
2024/03/30 11:14:20;;;;;;;2.10;1.20;;;;;;;20.95;40.63;100381.16;110859;1233;61868;-65
2024/03/30 11:16:47;;;;;;;2.20;1.00;;;;;;;20.93;40.83;100378.91;110883;1233;61048;-65
2024/03/30 11:19:19;;;;;;;1.90;1.10;;;;;;;20.87;40.15;100381.63;111001;1234;76486;-66
2024/03/30 11:21:49;;;;;;;3.10;1.20;;;;;;;20.88;40.71;100383.42;111021;1235;73932;-66
2024/03/30 11:24:17;;;;;;;2.40;1.40;;;;;;;20.95;41.28;100379.05;110810;1235;72692;-66
2024/03/30 11:26:55;;;;;;;3.10;1.10;;;;;;;21.02;41.85;100374.10;110813;1235;62046;-65